sensor_id;sensor_type;location;lat;lon;timestamp;temperature;humidity
33207;DHT22;19565;46.602;11.534;2023-08-21T00:01:34;22.30;99.90
33207;DHT22;19565;46.602;11.534;2023-08-21T00:04:02;22.40;99.90
33207;DHT22;19565;46.602;11.534;2023-08-21T00:06:31;22.50;99.90
33207;DHT22;19565;46.602;11.534;2023-08-21T00:09:00;22.40;99.90
33207;DHT22;19565;46.602;11.534;2023-08-21T00:11:29;22.20;99.90
33207;DHT22;19565;46.602;11.534;2023-08-21T00:13:57;22.20;99.90
33207;DHT22;19565;46.602;11.534;2023-08-21T00:16:25;22.30;99.90
33207;DHT22;19565;46.602;11.534;2023-08-21T00:18:55;22.30;99.90
33207;DHT22;19565;46.602;11.534;2023-08-21T00:21:23;22.40;99.90
33207;DHT22;19565;46.602;11.534;2023-08-21T00:23:51;22.40;99.90
33207;DHT22;19565;46.602;11.534;2023-08-21T00:26:19;22.50;99.90
33207;DHT22;19565;46.602;11.534;2023-08-21T00:28:48;22.50;99.90
33207;DHT22;19565;46.602;11.534;2023-08-21T00:31:16;22.50;99.90
33207;DHT22;19565;46.602;11.534;2023-08-21T00:33:44;22.30;99.90
33207;DHT22;19565;46.602;11.534;2023-08-21T00:36:12;22.00;99.90
33207;DHT22;19565;46.602;11.534;2023-08-21T00:38:40;21.80;99.90
33207;DHT22;19565;46.602;11.534;2023-08-21T00:41:08;21.60;99.90
33207;DHT22;19565;46.602;11.534;2023-08-21T00:43:36;21.60;99.90
33207;DHT22;19565;46.602;11.534;2023-08-21T00:46:05;21.80;99.90
33207;DHT22;19565;46.602;11.534;2023-08-21T00:48:34;21.90;99.90
33207;DHT22;19565;46.602;11.534;2023-08-21T00:51:03;22.00;99.90
33207;DHT22;19565;46.602;11.534;2023-08-21T00:53:31;22.10;99.90
33207;DHT22;19565;46.602;11.534;2023-08-21T00:56:00;22.20;99.90
33207;DHT22;19565;46.602;11.534;2023-08-21T00:58:31;22.20;99.90
33207;DHT22;19565;46.602;11.534;2023-08-21T01:01:03;22.20;99.90
33207;DHT22;19565;46.602;11.534;2023-08-21T01:03:35;22.20;99.90
33207;DHT22;19565;46.602;11.534;2023-08-21T01:06:05;22.20;99.90
33207;DHT22;19565;46.602;11.534;2023-08-21T01:08:45;22.10;99.90
33207;DHT22;19565;46.602;11.534;2023-08-21T01:11:21;22.10;99.90
33207;DHT22;19565;46.602;11.534;2023-08-21T01:13:59;22.20;99.90
33207;DHT22;19565;46.602;11.534;2023-08-21T01:16:33;22.20;99.90
33207;DHT22;19565;46.602;11.534;2023-08-21T01:19:09;22.30;99.90
33207;DHT22;19565;46.602;11.534;2023-08-21T01:21:40;22.30;99.90
33207;DHT22;19565;46.602;11.534;2023-08-21T01:24:12;22.20;99.90
33207;DHT22;19565;46.602;11.534;2023-08-21T01:26:42;22.10;99.90
33207;DHT22;19565;46.602;11.534;2023-08-21T01:29:12;22.10;99.90
33207;DHT22;19565;46.602;11.534;2023-08-21T01:31:45;22.10;99.90
33207;DHT22;19565;46.602;11.534;2023-08-21T01:34:17;22.00;99.90
33207;DHT22;19565;46.602;11.534;2023-08-21T01:36:48;21.90;99.90
33207;DHT22;19565;46.602;11.534;2023-08-21T01:39:20;21.80;99.90
33207;DHT22;19565;46.602;11.534;2023-08-21T01:41:51;21.70;99.90
33207;DHT22;19565;46.602;11.534;2023-08-21T01:44:21;21.80;99.90
33207;DHT22;19565;46.602;11.534;2023-08-21T01:46:51;21.70;99.90
33207;DHT22;19565;46.602;11.534;2023-08-21T01:49:22;21.60;99.90
33207;DHT22;19565;46.602;11.534;2023-08-21T01:51:52;21.50;99.90
33207;DHT22;19565;46.602;11.534;2023-08-21T01:54:24;21.50;99.90
33207;DHT22;19565;46.602;11.534;2023-08-21T01:56:54;21.60;99.90
33207;DHT22;19565;46.602;11.534;2023-08-21T01:59:25;21.80;99.90
33207;DHT22;19565;46.602;11.534;2023-08-21T02:01:55;21.90;99.90
33207;DHT22;19565;46.602;11.534;2023-08-21T02:04:25;21.90;99.90
33207;DHT22;19565;46.602;11.534;2023-08-21T02:06:55;21.90;99.90
33207;DHT22;19565;46.602;11.534;2023-08-21T02:09:27;21.90;99.90
33207;DHT22;19565;46.602;11.534;2023-08-21T02:12:00;22.00;99.90
33207;DHT22;19565;46.602;11.534;2023-08-21T02:14:31;22.00;99.90
33207;DHT22;19565;46.602;11.534;2023-08-21T02:17:01;21.90;99.90
33207;DHT22;19565;46.602;11.534;2023-08-21T02:19:31;22.00;99.90
33207;DHT22;19565;46.602;11.534;2023-08-21T02:22:01;22.00;99.90
33207;DHT22;19565;46.602;11.534;2023-08-21T02:24:33;22.10;99.90
33207;DHT22;19565;46.602;11.534;2023-08-21T02:27:03;22.10;99.90
33207;DHT22;19565;46.602;11.534;2023-08-21T02:29:34;22.10;99.90
33207;DHT22;19565;46.602;11.534;2023-08-21T02:32:04;21.90;99.90
33207;DHT22;19565;46.602;11.534;2023-08-21T02:34:35;21.90;99.90
33207;DHT22;19565;46.602;11.534;2023-08-21T02:37:07;21.80;99.90
33207;DHT22;19565;46.602;11.534;2023-08-21T02:39:39;21.80;99.90
33207;DHT22;19565;46.602;11.534;2023-08-21T02:42:09;21.70;99.90
33207;DHT22;19565;46.602;11.534;2023-08-21T02:44:40;21.80;99.90
33207;DHT22;19565;46.602;11.534;2023-08-21T02:47:10;21.80;99.90
33207;DHT22;19565;46.602;11.534;2023-08-21T02:49:40;21.70;99.90
33207;DHT22;19565;46.602;11.534;2023-08-21T02:52:10;21.70;99.90
33207;DHT22;19565;46.602;11.534;2023-08-21T02:54:42;21.70;99.90
33207;DHT22;19565;46.602;11.534;2023-08-21T02:57:13;21.80;99.90
33207;DHT22;19565;46.602;11.534;2023-08-21T02:59:43;21.70;99.90
33207;DHT22;19565;46.602;11.534;2023-08-21T03:02:13;21.70;99.90
33207;DHT22;19565;46.602;11.534;2023-08-21T03:04:44;21.60;99.90
33207;DHT22;19565;46.602;11.534;2023-08-21T03:07:14;21.50;99.90
33207;DHT22;19565;46.602;11.534;2023-08-21T03:09:50;21.40;99.90
33207;DHT22;19565;46.602;11.534;2023-08-21T03:12:20;21.20;99.90
33207;DHT22;19565;46.602;11.534;2023-08-21T03:14:51;21.00;99.90
33207;DHT22;19565;46.602;11.534;2023-08-21T03:17:21;20.90;99.90
33207;DHT22;19565;46.602;11.534;2023-08-21T03:19:52;20.80;99.90
33207;DHT22;19565;46.602;11.534;2023-08-21T03:22:23;20.70;99.90
33207;DHT22;19565;46.602;11.534;2023-08-21T03:24:56;20.70;99.90
33207;DHT22;19565;46.602;11.534;2023-08-21T03:27:26;20.70;99.90
33207;DHT22;19565;46.602;11.534;2023-08-21T03:29:57;20.70;99.90
33207;DHT22;19565;46.602;11.534;2023-08-21T03:32:29;20.70;99.90
33207;DHT22;19565;46.602;11.534;2023-08-21T03:34:59;20.80;99.90
33207;DHT22;19565;46.602;11.534;2023-08-21T03:37:30;20.80;99.90
33207;DHT22;19565;46.602;11.534;2023-08-21T03:40:02;20.90;99.90
33207;DHT22;19565;46.602;11.534;2023-08-21T03:42:33;20.70;99.90
33207;DHT22;19565;46.602;11.534;2023-08-21T03:45:04;20.60;99.90
33207;DHT22;19565;46.602;11.534;2023-08-21T03:47:41;20.60;99.90
33207;DHT22;19565;46.602;11.534;2023-08-21T03:50:12;20.60;99.90
33207;DHT22;19565;46.602;11.534;2023-08-21T03:52:42;20.60;99.90
33207;DHT22;19565;46.602;11.534;2023-08-21T03:55:14;20.60;99.90
33207;DHT22;19565;46.602;11.534;2023-08-21T03:57:44;20.60;99.90
33207;DHT22;19565;46.602;11.534;2023-08-21T04:00:15;20.60;99.90
33207;DHT22;19565;46.602;11.534;2023-08-21T04:02:45;20.70;99.90
33207;DHT22;19565;46.602;11.534;2023-08-21T04:05:15;20.80;99.90
33207;DHT22;19565;46.602;11.534;2023-08-21T04:07:46;20.80;99.90
33207;DHT22;19565;46.602;11.534;2023-08-21T04:10:18;20.90;99.90
33207;DHT22;19565;46.602;11.534;2023-08-21T04:12:48;20.90;99.90
33207;DHT22;19565;46.602;11.534;2023-08-21T04:15:18;20.80;99.90
33207;DHT22;19565;46.602;11.534;2023-08-21T04:17:48;20.90;99.90
33207;DHT22;19565;46.602;11.534;2023-08-21T04:20:19;20.70;99.90
33207;DHT22;19565;46.602;11.534;2023-08-21T04:22:50;20.70;99.90
33207;DHT22;19565;46.602;11.534;2023-08-21T04:25:22;20.70;99.90
33207;DHT22;19565;46.602;11.534;2023-08-21T04:27:52;20.70;99.90
33207;DHT22;19565;46.602;11.534;2023-08-21T04:30:22;20.60;99.90
33207;DHT22;19565;46.602;11.534;2023-08-21T04:32:53;20.60;99.90
33207;DHT22;19565;46.602;11.534;2023-08-21T04:35:23;20.50;99.90
33207;DHT22;19565;46.602;11.534;2023-08-21T04:37:57;20.40;99.90
33207;DHT22;19565;46.602;11.534;2023-08-21T04:40:29;20.40;99.90
33207;DHT22;19565;46.602;11.534;2023-08-21T04:42:59;20.40;99.90
33207;DHT22;19565;46.602;11.534;2023-08-21T04:45:29;20.30;99.90
33207;DHT22;19565;46.602;11.534;2023-08-21T04:48:00;20.20;99.90
33207;DHT22;19565;46.602;11.534;2023-08-21T04:50:30;20.10;99.90
33207;DHT22;19565;46.602;11.534;2023-08-21T04:53:00;20.00;99.90
33207;DHT22;19565;46.602;11.534;2023-08-21T04:55:32;19.90;99.90
33207;DHT22;19565;46.602;11.534;2023-08-21T04:58:03;19.90;99.90
33207;DHT22;19565;46.602;11.534;2023-08-21T05:00:33;19.90;99.90
33207;DHT22;19565;46.602;11.534;2023-08-21T05:03:05;19.90;99.90
33207;DHT22;19565;46.602;11.534;2023-08-21T05:05:38;19.80;99.90
33207;DHT22;19565;46.602;11.534;2023-08-21T05:08:09;19.80;99.90
33207;DHT22;19565;46.602;11.534;2023-08-21T05:10:41;19.90;99.90
33207;DHT22;19565;46.602;11.534;2023-08-21T05:13:11;19.90;99.90
33207;DHT22;19565;46.602;11.534;2023-08-21T05:15:49;20.00;99.90
33207;DHT22;19565;46.602;11.534;2023-08-21T05:18:20;20.00;99.90
33207;DHT22;19565;46.602;11.534;2023-08-21T05:20:53;20.10;99.90
33207;DHT22;19565;46.602;11.534;2023-08-21T05:23:23;20.10;99.90
33207;DHT22;19565;46.602;11.534;2023-08-21T05:25:55;20.10;99.90
33207;DHT22;19565;46.602;11.534;2023-08-21T05:28:26;20.20;99.90
33207;DHT22;19565;46.602;11.534;2023-08-21T05:30:57;20.20;99.90
33207;DHT22;19565;46.602;11.534;2023-08-21T05:33:30;20.20;99.90
33207;DHT22;19565;46.602;11.534;2023-08-21T05:36:00;20.20;99.90
33207;DHT22;19565;46.602;11.534;2023-08-21T05:38:31;20.20;99.90
33207;DHT22;19565;46.602;11.534;2023-08-21T05:41:02;20.20;99.90
33207;DHT22;19565;46.602;11.534;2023-08-21T05:43:34;20.30;99.90
33207;DHT22;19565;46.602;11.534;2023-08-21T05:46:06;20.30;99.90
33207;DHT22;19565;46.602;11.534;2023-08-21T05:48:36;20.40;99.90
33207;DHT22;19565;46.602;11.534;2023-08-21T05:51:07;20.50;99.90
33207;DHT22;19565;46.602;11.534;2023-08-21T05:53:37;20.50;99.90
33207;DHT22;19565;46.602;11.534;2023-08-21T05:56:09;20.50;99.90
33207;DHT22;19565;46.602;11.534;2023-08-21T05:58:39;20.50;99.90
33207;DHT22;19565;46.602;11.534;2023-08-21T06:01:10;20.50;99.90
33207;DHT22;19565;46.602;11.534;2023-08-21T06:03:41;20.50;99.90
33207;DHT22;19565;46.602;11.534;2023-08-21T06:06:12;20.50;99.90
33207;DHT22;19565;46.602;11.534;2023-08-21T06:08:42;20.50;99.90
33207;DHT22;19565;46.602;11.534;2023-08-21T06:11:14;20.40;99.90
33207;DHT22;19565;46.602;11.534;2023-08-21T06:13:44;20.20;99.90
33207;DHT22;19565;46.602;11.534;2023-08-21T06:16:15;20.10;99.90
33207;DHT22;19565;46.602;11.534;2023-08-21T06:18:46;20.10;99.90
33207;DHT22;19565;46.602;11.534;2023-08-21T06:21:16;20.10;99.90
33207;DHT22;19565;46.602;11.534;2023-08-21T06:23:46;20.10;99.90
33207;DHT22;19565;46.602;11.534;2023-08-21T06:26:18;20.10;99.90
33207;DHT22;19565;46.602;11.534;2023-08-21T06:28:48;20.20;99.90
33207;DHT22;19565;46.602;11.534;2023-08-21T06:31:18;20.20;99.90
33207;DHT22;19565;46.602;11.534;2023-08-21T06:33:49;20.20;99.90
33207;DHT22;19565;46.602;11.534;2023-08-21T06:36:19;20.30;99.90
33207;DHT22;19565;46.602;11.534;2023-08-21T06:38:49;20.30;99.90
33207;DHT22;19565;46.602;11.534;2023-08-21T06:41:21;20.40;99.90
33207;DHT22;19565;46.602;11.534;2023-08-21T06:43:51;20.40;99.90
33207;DHT22;19565;46.602;11.534;2023-08-21T06:46:21;20.50;99.90
33207;DHT22;19565;46.602;11.534;2023-08-21T06:48:51;20.60;99.90
33207;DHT22;19565;46.602;11.534;2023-08-21T06:51:22;20.70;99.90
33207;DHT22;19565;46.602;11.534;2023-08-21T06:53:52;20.80;99.90
33207;DHT22;19565;46.602;11.534;2023-08-21T06:56:23;20.90;99.90
33207;DHT22;19565;46.602;11.534;2023-08-21T06:58:54;20.90;99.90
33207;DHT22;19565;46.602;11.534;2023-08-21T07:01:24;21.00;99.90
33207;DHT22;19565;46.602;11.534;2023-08-21T07:04:08;21.10;99.90
33207;DHT22;19565;46.602;11.534;2023-08-21T07:07:06;21.10;99.90
33207;DHT22;19565;46.602;11.534;2023-08-21T07:09:43;21.20;99.90
33207;DHT22;19565;46.602;11.534;2023-08-21T07:12:15;21.20;99.90
33207;DHT22;19565;46.602;11.534;2023-08-21T07:14:46;21.30;99.90
33207;DHT22;19565;46.602;11.534;2023-08-21T07:17:16;21.40;99.90
33207;DHT22;19565;46.602;11.534;2023-08-21T07:19:46;21.40;99.80
33207;DHT22;19565;46.602;11.534;2023-08-21T07:22:17;21.50;99.60
33207;DHT22;19565;46.602;11.534;2023-08-21T07:24:48;21.60;99.20
33207;DHT22;19565;46.602;11.534;2023-08-21T07:27:21;21.60;99.20
33207;DHT22;19565;46.602;11.534;2023-08-21T07:29:51;21.70;99.20
33207;DHT22;19565;46.602;11.534;2023-08-21T07:32:21;21.80;99.30
33207;DHT22;19565;46.602;11.534;2023-08-21T07:34:53;21.90;99.10
33207;DHT22;19565;46.602;11.534;2023-08-21T07:37:23;21.90;99.10
33207;DHT22;19565;46.602;11.534;2023-08-21T07:39:53;22.00;98.90
33207;DHT22;19565;46.602;11.534;2023-08-21T07:42:28;22.00;98.80
33207;DHT22;19565;46.602;11.534;2023-08-21T07:45:00;22.10;98.80
33207;DHT22;19565;46.602;11.534;2023-08-21T07:47:33;22.10;98.70
33207;DHT22;19565;46.602;11.534;2023-08-21T07:50:07;22.20;98.10
33207;DHT22;19565;46.602;11.534;2023-08-21T07:52:39;22.20;98.00
33207;DHT22;19565;46.602;11.534;2023-08-21T07:55:09;22.20;97.80
33207;DHT22;19565;46.602;11.534;2023-08-21T07:57:41;22.30;97.80
33207;DHT22;19565;46.602;11.534;2023-08-21T08:00:12;22.40;97.30
33207;DHT22;19565;46.602;11.534;2023-08-21T08:02:43;22.40;97.20
33207;DHT22;19565;46.602;11.534;2023-08-21T08:05:14;22.50;96.70
33207;DHT22;19565;46.602;11.534;2023-08-21T08:07:44;22.50;96.90
33207;DHT22;19565;46.602;11.534;2023-08-21T08:10:14;22.60;97.40
33207;DHT22;19565;46.602;11.534;2023-08-21T08:12:46;22.60;97.60
33207;DHT22;19565;46.602;11.534;2023-08-21T08:15:16;22.70;97.60
33207;DHT22;19565;46.602;11.534;2023-08-21T08:17:47;22.70;97.20
33207;DHT22;19565;46.602;11.534;2023-08-21T08:20:25;22.80;96.80
33207;DHT22;19565;46.602;11.534;2023-08-21T08:22:58;22.80;96.70
33207;DHT22;19565;46.602;11.534;2023-08-21T08:25:28;22.90;96.70
33207;DHT22;19565;46.602;11.534;2023-08-21T08:28:00;22.90;96.50
33207;DHT22;19565;46.602;11.534;2023-08-21T08:30:31;23.00;96.20
33207;DHT22;19565;46.602;11.534;2023-08-21T08:33:03;23.00;96.10
33207;DHT22;19565;46.602;11.534;2023-08-21T08:35:33;23.10;96.30
33207;DHT22;19565;46.602;11.534;2023-08-21T08:38:04;23.10;96.40
33207;DHT22;19565;46.602;11.534;2023-08-21T08:40:43;23.20;96.40
33207;DHT22;19565;46.602;11.534;2023-08-21T08:43:15;23.20;96.40
33207;DHT22;19565;46.602;11.534;2023-08-21T08:45:47;23.30;96.10
33207;DHT22;19565;46.602;11.534;2023-08-21T08:48:20;23.40;95.50
33207;DHT22;19565;46.602;11.534;2023-08-21T08:50:51;23.50;95.90
33207;DHT22;19565;46.602;11.534;2023-08-21T08:53:26;23.60;95.80
33207;DHT22;19565;46.602;11.534;2023-08-21T08:55:58;23.70;95.90
33207;DHT22;19565;46.602;11.534;2023-08-21T08:58:30;23.80;94.70
33207;DHT22;19565;46.602;11.534;2023-08-21T09:01:01;23.90;94.80
33207;DHT22;19565;46.602;11.534;2023-08-21T09:03:31;24.00;93.30
33207;DHT22;19565;46.602;11.534;2023-08-21T09:06:01;24.10;93.20
33207;DHT22;19565;46.602;11.534;2023-08-21T09:08:31;24.20;92.70
33207;DHT22;19565;46.602;11.534;2023-08-21T09:11:02;24.20;92.60
33207;DHT22;19565;46.602;11.534;2023-08-21T09:13:34;24.30;92.30
33207;DHT22;19565;46.602;11.534;2023-08-21T09:16:05;24.40;92.90
33207;DHT22;19565;46.602;11.534;2023-08-21T09:18:36;24.40;92.10
33207;DHT22;19565;46.602;11.534;2023-08-21T09:21:07;24.40;92.50
33207;DHT22;19565;46.602;11.534;2023-08-21T09:23:38;24.40;92.70
33207;DHT22;19565;46.602;11.534;2023-08-21T09:26:08;24.40;92.70
33207;DHT22;19565;46.602;11.534;2023-08-21T09:28:43;24.40;92.40
33207;DHT22;19565;46.602;11.534;2023-08-21T09:31:13;24.50;92.50
33207;DHT22;19565;46.602;11.534;2023-08-21T09:33:55;24.50;92.10
33207;DHT22;19565;46.602;11.534;2023-08-21T09:36:28;24.50;91.80
33207;DHT22;19565;46.602;11.534;2023-08-21T09:38:58;24.60;91.90
33207;DHT22;19565;46.602;11.534;2023-08-21T09:41:29;24.60;92.30
33207;DHT22;19565;46.602;11.534;2023-08-21T09:44:01;24.70;92.10
33207;DHT22;19565;46.602;11.534;2023-08-21T09:46:32;24.70;92.30
33207;DHT22;19565;46.602;11.534;2023-08-21T09:49:02;24.70;92.10
33207;DHT22;19565;46.602;11.534;2023-08-21T09:51:33;24.80;92.40
33207;DHT22;19565;46.602;11.534;2023-08-21T09:54:04;24.80;92.40
33207;DHT22;19565;46.602;11.534;2023-08-21T09:56:35;24.90;92.30
33207;DHT22;19565;46.602;11.534;2023-08-21T09:59:08;24.90;91.40
33207;DHT22;19565;46.602;11.534;2023-08-21T10:01:39;25.00;91.80
33207;DHT22;19565;46.602;11.534;2023-08-21T10:04:10;25.00;91.60
33207;DHT22;19565;46.602;11.534;2023-08-21T10:06:41;25.10;91.30
33207;DHT22;19565;46.602;11.534;2023-08-21T10:09:15;25.20;91.30
33207;DHT22;19565;46.602;11.534;2023-08-21T10:11:45;25.30;91.20
33207;DHT22;19565;46.602;11.534;2023-08-21T10:14:18;25.30;89.60
33207;DHT22;19565;46.602;11.534;2023-08-21T10:16:50;25.40;90.40
33207;DHT22;19565;46.602;11.534;2023-08-21T10:19:22;25.50;90.50
33207;DHT22;19565;46.602;11.534;2023-08-21T10:21:56;25.50;90.50
33207;DHT22;19565;46.602;11.534;2023-08-21T10:24:28;25.60;90.60
33207;DHT22;19565;46.602;11.534;2023-08-21T10:27:01;25.70;91.40
33207;DHT22;19565;46.602;11.534;2023-08-21T10:29:32;25.70;91.10
33207;DHT22;19565;46.602;11.534;2023-08-21T10:32:04;25.70;90.90
33207;DHT22;19565;46.602;11.534;2023-08-21T10:34:36;25.80;90.80
33207;DHT22;19565;46.602;11.534;2023-08-21T10:37:08;25.80;89.40
33207;DHT22;19565;46.602;11.534;2023-08-21T10:39:55;25.90;87.40
33207;DHT22;19565;46.602;11.534;2023-08-21T10:42:39;26.00;87.60
33207;DHT22;19565;46.602;11.534;2023-08-21T10:45:15;26.00;88.40
33207;DHT22;19565;46.602;11.534;2023-08-21T10:47:45;26.10;88.40
33207;DHT22;19565;46.602;11.534;2023-08-21T10:50:17;26.10;87.30
33207;DHT22;19565;46.602;11.534;2023-08-21T10:52:51;26.20;88.00
33207;DHT22;19565;46.602;11.534;2023-08-21T10:55:21;26.20;88.40
33207;DHT22;19565;46.602;11.534;2023-08-21T10:57:57;26.20;88.40
33207;DHT22;19565;46.602;11.534;2023-08-21T11:00:32;26.20;88.20
33207;DHT22;19565;46.602;11.534;2023-08-21T11:03:03;26.30;87.90
33207;DHT22;19565;46.602;11.534;2023-08-21T11:05:33;26.30;87.70
33207;DHT22;19565;46.602;11.534;2023-08-21T11:08:04;26.40;90.00
33207;DHT22;19565;46.602;11.534;2023-08-21T11:10:35;26.40;90.20
33207;DHT22;19565;46.602;11.534;2023-08-21T11:13:07;26.50;90.00
33207;DHT22;19565;46.602;11.534;2023-08-21T11:15:39;26.50;89.20
33207;DHT22;19565;46.602;11.534;2023-08-21T11:18:09;26.60;88.40
33207;DHT22;19565;46.602;11.534;2023-08-21T11:20:39;26.60;89.50
33207;DHT22;19565;46.602;11.534;2023-08-21T11:23:10;26.70;88.40
33207;DHT22;19565;46.602;11.534;2023-08-21T11:25:41;26.80;88.40
33207;DHT22;19565;46.602;11.534;2023-08-21T11:28:11;26.80;88.40
33207;DHT22;19565;46.602;11.534;2023-08-21T11:30:43;26.90;89.00
33207;DHT22;19565;46.602;11.534;2023-08-21T11:33:14;26.90;88.50
33207;DHT22;19565;46.602;11.534;2023-08-21T11:35:44;27.00;87.60
33207;DHT22;19565;46.602;11.534;2023-08-21T11:38:26;27.00;87.90
33207;DHT22;19565;46.602;11.534;2023-08-21T11:40:59;27.10;86.80
33207;DHT22;19565;46.602;11.534;2023-08-21T11:43:35;27.10;87.20
33207;DHT22;19565;46.602;11.534;2023-08-21T11:46:08;27.10;85.70
33207;DHT22;19565;46.602;11.534;2023-08-21T11:48:43;27.20;84.80
33207;DHT22;19565;46.602;11.534;2023-08-21T11:51:13;27.30;86.10
33207;DHT22;19565;46.602;11.534;2023-08-21T11:53:47;27.30;85.70
33207;DHT22;19565;46.602;11.534;2023-08-21T11:56:21;27.30;82.50
33207;DHT22;19565;46.602;11.534;2023-08-21T11:58:51;27.30;81.70
33207;DHT22;19565;46.602;11.534;2023-08-21T12:01:54;27.40;79.50
33207;DHT22;19565;46.602;11.534;2023-08-21T12:05:13;27.50;85.20
33207;DHT22;19565;46.602;11.534;2023-08-21T12:08:04;27.50;85.50
33207;DHT22;19565;46.602;11.534;2023-08-21T12:10:37;27.60;85.50
33207;DHT22;19565;46.602;11.534;2023-08-21T12:13:12;27.70;85.10
33207;DHT22;19565;46.602;11.534;2023-08-21T12:16:03;27.80;85.40
33207;DHT22;19565;46.602;11.534;2023-08-21T12:18:40;27.90;87.30
33207;DHT22;19565;46.602;11.534;2023-08-21T12:21:11;28.00;86.00
33207;DHT22;19565;46.602;11.534;2023-08-21T12:23:42;28.10;85.70
33207;DHT22;19565;46.602;11.534;2023-08-21T12:26:12;28.20;85.40
33207;DHT22;19565;46.602;11.534;2023-08-21T12:28:51;28.30;86.60
33207;DHT22;19565;46.602;11.534;2023-08-21T12:31:22;28.40;86.20
33207;DHT22;19565;46.602;11.534;2023-08-21T12:33:55;28.50;82.60
33207;DHT22;19565;46.602;11.534;2023-08-21T12:36:29;28.50;83.80
33207;DHT22;19565;46.602;11.534;2023-08-21T12:39:01;28.50;83.10
33207;DHT22;19565;46.602;11.534;2023-08-21T12:41:33;28.60;84.40
33207;DHT22;19565;46.602;11.534;2023-08-21T12:44:23;28.70;84.20
33207;DHT22;19565;46.602;11.534;2023-08-21T12:46:54;28.70;84.80
33207;DHT22;19565;46.602;11.534;2023-08-21T12:49:28;28.70;82.80
33207;DHT22;19565;46.602;11.534;2023-08-21T12:52:05;28.70;82.70
33207;DHT22;19565;46.602;11.534;2023-08-21T12:54:39;28.70;82.00
33207;DHT22;19565;46.602;11.534;2023-08-21T12:57:11;28.80;83.30
33207;DHT22;19565;46.602;11.534;2023-08-21T12:59:42;28.80;83.10
33207;DHT22;19565;46.602;11.534;2023-08-21T13:02:13;28.90;83.10
33207;DHT22;19565;46.602;11.534;2023-08-21T13:04:47;28.90;82.30
33207;DHT22;19565;46.602;11.534;2023-08-21T13:07:17;29.10;81.90
33207;DHT22;19565;46.602;11.534;2023-08-21T13:09:48;29.10;79.50
33207;DHT22;19565;46.602;11.534;2023-08-21T13:12:18;29.20;78.10
33207;DHT22;19565;46.602;11.534;2023-08-21T13:14:48;29.20;78.20
33207;DHT22;19565;46.602;11.534;2023-08-21T13:17:18;29.30;79.80
33207;DHT22;19565;46.602;11.534;2023-08-21T13:19:51;29.30;77.90
33207;DHT22;19565;46.602;11.534;2023-08-21T13:22:22;29.40;78.10
33207;DHT22;19565;46.602;11.534;2023-08-21T13:24:51;29.40;79.00
33207;DHT22;19565;46.602;11.534;2023-08-21T13:27:19;29.50;80.10
33207;DHT22;19565;46.602;11.534;2023-08-21T13:29:47;29.50;79.30
33207;DHT22;19565;46.602;11.534;2023-08-21T13:32:15;29.50;79.50
33207;DHT22;19565;46.602;11.534;2023-08-21T13:34:43;29.50;79.20
33207;DHT22;19565;46.602;11.534;2023-08-21T13:37:12;29.50;78.70
33207;DHT22;19565;46.602;11.534;2023-08-21T13:39:40;29.50;78.00
33207;DHT22;19565;46.602;11.534;2023-08-21T13:42:08;29.60;78.80
33207;DHT22;19565;46.602;11.534;2023-08-21T13:44:36;29.60;77.90
33207;DHT22;19565;46.602;11.534;2023-08-21T13:47:07;29.70;78.40
33207;DHT22;19565;46.602;11.534;2023-08-21T13:49:35;29.80;79.10
33207;DHT22;19565;46.602;11.534;2023-08-21T13:52:04;29.80;79.90
33207;DHT22;19565;46.602;11.534;2023-08-21T13:54:33;29.80;77.70
33207;DHT22;19565;46.602;11.534;2023-08-21T13:57:01;29.90;77.80
33207;DHT22;19565;46.602;11.534;2023-08-21T13:59:29;30.00;79.70
33207;DHT22;19565;46.602;11.534;2023-08-21T14:01:58;30.00;78.30
33207;DHT22;19565;46.602;11.534;2023-08-21T14:04:26;30.10;80.30
33207;DHT22;19565;46.602;11.534;2023-08-21T14:06:54;30.10;81.70
33207;DHT22;19565;46.602;11.534;2023-08-21T14:09:22;30.10;82.50
33207;DHT22;19565;46.602;11.534;2023-08-21T14:11:51;30.10;82.80
33207;DHT22;19565;46.602;11.534;2023-08-21T14:14:19;30.10;81.30
33207;DHT22;19565;46.602;11.534;2023-08-21T14:16:47;30.20;84.30
33207;DHT22;19565;46.602;11.534;2023-08-21T14:19:15;30.30;84.40
33207;DHT22;19565;46.602;11.534;2023-08-21T14:21:43;30.30;85.70
33207;DHT22;19565;46.602;11.534;2023-08-21T14:24:11;30.30;85.90
33207;DHT22;19565;46.602;11.534;2023-08-21T14:26:39;30.30;85.90
33207;DHT22;19565;46.602;11.534;2023-08-21T14:29:08;30.30;85.10
33207;DHT22;19565;46.602;11.534;2023-08-21T14:31:36;30.30;81.80
33207;DHT22;19565;46.602;11.534;2023-08-21T14:34:04;30.30;83.10
33207;DHT22;19565;46.602;11.534;2023-08-21T14:36:33;30.20;84.70
33207;DHT22;19565;46.602;11.534;2023-08-21T14:39:00;30.30;83.70
33207;DHT22;19565;46.602;11.534;2023-08-21T14:41:30;30.40;82.90
33207;DHT22;19565;46.602;11.534;2023-08-21T14:43:58;30.40;85.20
33207;DHT22;19565;46.602;11.534;2023-08-21T14:46:27;30.30;79.10
33207;DHT22;19565;46.602;11.534;2023-08-21T14:49:08;30.50;80.00
33207;DHT22;19565;46.602;11.534;2023-08-21T14:51:36;31.00;82.80
33207;DHT22;19565;46.602;11.534;2023-08-21T14:54:04;31.50;81.40
33207;DHT22;19565;46.602;11.534;2023-08-21T14:56:32;31.70;79.40
33207;DHT22;19565;46.602;11.534;2023-08-21T14:59:01;31.60;80.70
33207;DHT22;19565;46.602;11.534;2023-08-21T15:01:31;31.30;81.40
33207;DHT22;19565;46.602;11.534;2023-08-21T15:03:59;31.40;81.40
33207;DHT22;19565;46.602;11.534;2023-08-21T15:06:27;31.80;80.80
33207;DHT22;19565;46.602;11.534;2023-08-21T15:08:55;32.10;79.70
33207;DHT22;19565;46.602;11.534;2023-08-21T15:11:24;32.40;79.30
33207;DHT22;19565;46.602;11.534;2023-08-21T15:13:51;32.80;78.00
33207;DHT22;19565;46.602;11.534;2023-08-21T15:16:19;33.10;79.20
33207;DHT22;19565;46.602;11.534;2023-08-21T15:18:49;33.50;77.60
33207;DHT22;19565;46.602;11.534;2023-08-21T15:21:19;33.80;78.10
33207;DHT22;19565;46.602;11.534;2023-08-21T15:23:47;34.00;77.10
33207;DHT22;19565;46.602;11.534;2023-08-21T15:26:15;34.20;74.30
33207;DHT22;19565;46.602;11.534;2023-08-21T15:28:43;34.30;73.80
33207;DHT22;19565;46.602;11.534;2023-08-21T15:31:11;34.30;72.90
33207;DHT22;19565;46.602;11.534;2023-08-21T15:33:39;34.30;72.50
33207;DHT22;19565;46.602;11.534;2023-08-21T15:36:09;34.20;72.70
33207;DHT22;19565;46.602;11.534;2023-08-21T15:38:37;33.80;73.20
33207;DHT22;19565;46.602;11.534;2023-08-21T15:41:05;33.40;72.70